Time;durP1;ratioP1;P1;durP2;ratioP2;P2;SDS_P1;SDS_P2;PMS_P1;PMS_P2;Temp;Humidity;BMP_temperature;BMP_pressure;BME280_temperature;BME280_humidity;BME280_pressure;Samples;Min_cycle;Max_cycle;Signal;HPM_P1;HPM_P2
2022/11/19 00:02:11;;;;;;;15.75;11.75;;;-0.60;99.90;;;;;;5075081;28;20522;-51
2022/11/19 00:04:57;;;;;;;18.23;12.70;;;-0.60;99.90;;;;;;5091097;28;20115;-51
2022/11/19 00:07:43;;;;;;;16.67;12.57;;;-0.60;99.90;;;;;;5091254;28;20111;-54
2022/11/19 00:10:29;;;;;;;18.60;13.38;;;-0.70;99.90;;;;;;5090709;28;20514;-56
2022/11/19 00:13:15;;;;;;;16.08;11.88;;;-0.70;99.90;;;;;;5075745;28;20031;-52
2022/11/19 00:16:13;;;;;;;17.23;12.38;;;-0.70;99.90;;;;;;5074800;28;20408;-53
2022/11/19 00:18:58;;;;;;;19.17;12.32;;;-0.70;99.90;;;;;;5091632;28;20016;-50
2022/11/19 00:21:45;;;;;;;15.43;11.77;;;-0.70;99.90;;;;;;5074723;28;20404;-49
2022/11/19 00:24:31;;;;;;;16.42;12.45;;;-0.70;99.90;;;;;;5075757;28;20461;-50
2022/11/19 00:27:16;;;;;;;18.73;11.82;;;-0.80;99.90;;;;;;5094325;28;20032;-51
2022/11/19 00:30:06;;;;;;;16.02;12.48;;;-0.70;99.90;;;;;;5094268;28;20036;-50
2022/11/19 00:32:52;;;;;;;18.42;12.63;;;-0.70;99.90;;;;;;5094791;28;20031;-55
2022/11/19 00:35:39;;;;;;;19.63;13.05;;;-0.70;99.90;;;;;;5080092;28;20024;-52
2022/11/19 00:38:26;;;;;;;16.95;12.27;;;-0.70;99.90;;;;;;5080215;28;20107;-49
2022/11/19 00:41:12;;;;;;;16.30;11.60;;;-0.70;99.90;;;;;;5094171;28;20028;-56
2022/11/19 00:43:58;;;;;;;19.02;12.82;;;-0.70;99.90;;;;;;5079947;28;20024;-58
2022/11/19 00:46:44;;;;;;;19.67;13.00;;;-0.70;99.90;;;;;;5093930;28;20121;-55
2022/11/19 00:49:30;;;;;;;18.98;13.23;;;-0.80;99.90;;;;;;5093812;28;20059;-50
2022/11/19 00:52:16;;;;;;;19.58;12.52;;;-0.80;99.90;;;;;;5093011;28;20129;-54
2022/11/19 00:55:02;;;;;;;21.38;12.80;;;-0.80;99.90;;;;;;5093048;28;20020;-55
2022/11/19 00:57:48;;;;;;;18.42;12.40;;;-0.80;99.90;;;;;;5088690;28;20020;-49
2022/11/19 01:00:34;;;;;;;18.40;12.85;;;-0.80;99.90;;;;;;5093497;28;20495;-51
2022/11/19 01:03:20;;;;;;;21.67;13.27;;;-0.70;99.90;;;;;;5077338;28;20556;-49
2022/11/19 01:06:07;;;;;;;19.33;12.93;;;-0.80;99.90;;;;;;5091199;28;20412;-48
2022/11/19 01:08:53;;;;;;;20.85;13.77;;;-0.70;99.90;;;;;;5092785;28;20028;-54
2022/11/19 01:11:39;;;;;;;18.40;12.90;;;-0.80;99.90;;;;;;5093612;28;20020;-52
2022/11/19 01:14:25;;;;;;;19.70;13.52;;;-0.80;99.90;;;;;;5092670;28;20028;-49
2022/11/19 01:17:11;;;;;;;21.90;13.60;;;-0.80;99.90;;;;;;5092701;28;20016;-48
2022/11/19 01:19:57;;;;;;;17.90;12.95;;;-0.80;99.90;;;;;;5092791;28;20020;-52
2022/11/19 01:22:45;;;;;;;20.40;13.70;;;-0.90;99.90;;;;;;5093800;28;20021;-52
2022/11/19 01:25:31;;;;;;;20.60;13.32;;;-0.90;99.90;;;;;;5092625;28;20493;-51
2022/11/19 01:28:16;;;;;;;18.85;12.88;;;-0.90;99.90;;;;;;5092492;28;20420;-48
2022/11/19 01:31:23;;;;;;;21.20;13.23;;;-0.80;99.90;;;;;;5092787;28;20020;-49
2022/11/19 01:34:09;;;;;;;22.00;14.27;;;-0.80;99.90;;;;;;5092207;28;20021;-47
2022/11/19 01:36:55;;;;;;;19.02;13.05;;;-0.80;99.90;;;;;;5091640;28;20027;-48
2022/11/19 01:39:41;;;;;;;17.33;12.48;;;-0.90;99.90;;;;;;5092301;28;20107;-51
2022/11/19 01:45:35;;;;;;;19.08;12.85;;;-0.90;99.90;;;;;;5092934;28;20035;-53
2022/11/19 01:48:28;;;;;;;19.75;12.48;;;-1.00;99.90;;;;;;5092239;28;20111;-54
2022/11/19 01:51:18;;;;;;;20.10;12.98;;;-1.00;99.90;;;;;;5077879;28;20123;-52
2022/11/19 01:54:13;;;;;;;20.08;13.48;;;-1.10;99.90;;;;;;5091972;28;20409;-48
2022/11/19 01:57:05;;;;;;;17.77;12.15;;;-1.10;99.90;;;;;;5059174;28;20052;-50
2022/11/19 01:59:51;;;;;;;18.40;13.18;;;-1.20;99.90;;;;;;5072068;28;20086;-48
2022/11/19 02:02:37;;;;;;;19.67;13.13;;;-1.10;99.90;;;;;;5071163;28;20012;-50
2022/11/19 02:05:25;;;;;;;21.48;12.68;;;-1.20;99.90;;;;;;5072752;28;20020;-55
2022/11/19 02:08:35;;;;;;;20.08;12.90;;;-1.20;99.90;;;;;;5092547;28;20036;-52
2022/11/19 02:11:28;;;;;;;19.50;12.68;;;-1.20;99.90;;;;;;5104245;28;20031;-51
2022/11/19 02:14:23;;;;;;;17.40;12.93;;;-1.20;99.90;;;;;;5110680;28;20062;-55
2022/11/19 02:17:33;;;;;;;19.00;12.90;;;-1.20;99.90;;;;;;5112560;28;20034;-50
2022/11/19 02:20:38;;;;;;;20.20;13.15;;;-1.20;99.90;;;;;;5097410;28;20069;-50
2022/11/19 02:23:39;;;;;;;32.60;17.58;;;-1.20;99.90;;;;;;5112328;28;20024;-52
2022/11/19 02:26:37;;;;;;;24.10;14.15;;;-1.20;99.90;;;;;;5112272;28;20032;-59
2022/11/19 02:29:29;;;;;;;19.52;12.82;;;-1.30;99.90;;;;;;5112268;28;20663;-54
2022/11/19 02:32:19;;;;;;;17.05;11.77;;;-1.30;99.90;;;;;;5112046;28;20081;-49
2022/11/19 02:35:14;;;;;;;17.85;12.27;;;-1.40;99.90;;;;;;5109964;28;20019;-52
2022/11/19 02:38:14;;;;;;;25.05;14.70;;;-1.40;99.90;;;;;;5110135;28;20016;-51
2022/11/19 02:41:32;;;;;;;26.88;14.23;;;-1.40;99.90;;;;;;5110428;28;20137;-53
2022/11/19 02:44:58;;;;;;;23.73;13.82;;;-1.30;99.90;;;;;;5111407;28;20032;-54
2022/11/19 02:47:51;;;;;;;19.05;12.15;;;-1.40;99.90;;;;;;5107423;28;20065;-50
2022/11/19 02:50:52;;;;;;;20.90;13.10;;;-1.40;99.90;;;;;;5077122;28;20055;-48
2022/11/19 02:53:38;;;;;;;18.77;11.82;;;-1.50;99.90;;;;;;5107235;28;20127;-54
2022/11/19 02:56:54;;;;;;;17.80;11.25;;;-1.50;99.90;;;;;;5085957;28;20032;-55
2022/11/19 03:06:17;;;;;;;15.70;11.18;;;-1.50;99.90;;;;;;5112119;28;20399;-48
2022/11/19 03:09:03;;;;;;;18.42;12.00;;;-1.50;99.90;;;;;;5111124;28;20032;-49
2022/11/19 03:11:58;;;;;;;17.05;11.20;;;-1.50;99.90;;;;;;5111767;28;20035;-50
2022/11/19 03:18:10;;;;;;;17.98;11.30;;;-1.60;99.90;;;;;;5090665;28;20020;-54
2022/11/19 03:21:22;;;;;;;20.20;12.07;;;-1.60;99.90;;;;;;5108439;28;20047;-57
2022/11/19 03:24:17;;;;;;;17.73;11.65;;;-1.60;99.90;;;;;;5112155;28;20087;-54
2022/11/19 03:27:34;;;;;;;15.23;11.00;;;-1.60;99.90;;;;;;5109847;28;20019;-54
2022/11/19 03:30:20;;;;;;;18.02;11.35;;;-1.60;99.90;;;;;;5109866;28;20103;-52
2022/11/19 03:33:10;;;;;;;18.02;11.27;;;-1.50;99.90;;;;;;5110595;28;20492;-50
2022/11/19 03:36:05;;;;;;;18.30;12.02;;;-1.50;99.90;;;;;;5109370;28;20031;-53
2022/11/19 03:38:54;;;;;;;17.73;11.20;;;-1.40;99.90;;;;;;5110599;28;20027;-48
2022/11/19 03:41:43;;;;;;;17.17;11.93;;;-1.30;99.90;;;;;;5109220;28;20107;-50
2022/11/19 03:44:46;;;;;;;16.65;11.05;;;-1.30;99.90;;;;;;5109552;28;20027;-48
2022/11/19 03:47:35;;;;;;;17.15;12.70;;;-1.20;99.90;;;;;;5109705;28;20395;-49
2022/11/19 03:51:03;;;;;;;17.52;11.57;;;-1.20;99.90;;;;;;5107422;28;20038;-53
2022/11/19 03:53:49;;;;;;;13.93;10.13;;;-1.20;99.90;;;;;;5084994;28;20077;-52
2022/11/19 03:56:39;;;;;;;19.15;11.85;;;-1.30;99.90;;;;;;5074974;28;20043;-54
2022/11/19 03:59:27;;;;;;;17.73;11.50;;;-1.40;99.90;;;;;;5091296;28;20047;-54
2022/11/19 04:02:14;;;;;;;16.15;12.13;;;-1.40;99.90;;;;;;5078253;28;20017;-48
2022/11/19 04:05:00;;;;;;;17.52;11.05;;;-1.50;99.90;;;;;;5095206;28;20024;-52
2022/11/19 04:07:46;;;;;;;18.70;12.27;;;-1.60;99.90;;;;;;5080552;28;20024;-51
2022/11/19 04:10:32;;;;;;;16.88;11.90;;;-1.60;99.90;;;;;;5094339;28;20032;-52
2022/11/19 04:13:17;;;;;;;18.10;11.55;;;-1.60;99.90;;;;;;5094443;28;20024;-52
2022/11/19 04:16:04;;;;;;;17.55;11.93;;;-1.70;99.90;;;;;;5094180;28;20028;-48
2022/11/19 04:18:49;;;;;;;17.02;10.88;;;-1.70;99.90;;;;;;5094415;28;20526;-49
2022/11/19 04:21:35;;;;;;;18.27;11.30;;;-1.80;99.90;;;;;;5093441;28;20530;-53
2022/11/19 04:24:21;;;;;;;14.40;11.13;;;-1.80;99.90;;;;;;5094228;28;20492;-50
2022/11/19 04:27:07;;;;;;;16.38;11.27;;;-1.80;99.90;;;;;;5094105;28;20028;-50
2022/11/19 04:29:53;;;;;;;18.77;11.32;;;-1.80;99.90;;;;;;5093416;28;20078;-48
2022/11/19 04:32:40;;;;;;;16.90;11.45;;;-1.70;99.90;;;;;;5093904;28;20028;-54
2022/11/19 04:35:26;;;;;;;16.75;11.27;;;-1.70;99.90;;;;;;5094501;28;20039;-57
2022/11/19 04:38:12;;;;;;;17.95;10.55;;;-1.60;99.90;;;;;;5094397;28;20016;-49
2022/11/19 04:40:58;;;;;;;16.42;11.10;;;-1.60;99.90;;;;;;5079862;28;20036;-49
2022/11/19 04:43:44;;;;;;;19.40;10.93;;;-1.60;99.90;;;;;;5094447;28;20124;-48
2022/11/19 04:46:30;;;;;;;20.77;11.73;;;-1.50;99.90;;;;;;5093648;28;20028;-50
2022/11/19 04:49:16;;;;;;;19.85;12.73;;;-1.50;99.90;;;;;;5079779;28;20024;-51
2022/11/19 04:52:02;;;;;;;15.15;10.80;;;-1.50;99.90;;;;;;5093778;28;20036;-49
2022/11/19 04:54:48;;;;;;;18.40;11.90;;;-1.60;99.90;;;;;;5093296;28;20111;-49
2022/11/19 04:57:34;;;;;;;19.05;11.32;;;-1.60;99.90;;;;;;5088126;28;20066;-48
2022/11/19 05:00:20;;;;;;;17.27;11.48;;;-1.70;99.90;;;;;;5071337;28;20020;-49
2022/11/19 05:03:06;;;;;;;17.73;11.70;;;-1.70;99.90;;;;;;5093122;28;20488;-50
2022/11/19 05:05:52;;;;;;;19.88;13.18;;;-1.70;99.90;;;;;;5093865;28;20504;-53
2022/11/19 05:08:38;;;;;;;19.25;11.88;;;-1.70;99.90;;;;;;5092887;28;20404;-50
2022/11/19 05:11:24;;;;;;;17.33;11.25;;;-1.80;99.90;;;;;;5092495;28;20074;-53
2022/11/19 05:14:10;;;;;;;17.75;11.52;;;-1.80;99.90;;;;;;5093310;28;20028;-51
2022/11/19 05:16:56;;;;;;;17.67;10.90;;;-1.70;99.90;;;;;;5092529;28;20549;-54
2022/11/19 05:19:41;;;;;;;18.10;11.07;;;-1.70;99.90;;;;;;5093149;28;20020;-54
2022/11/19 05:22:27;;;;;;;16.30;11.40;;;-1.70;99.90;;;;;;5092863;28;20027;-48
2022/11/19 05:25:13;;;;;;;14.88;10.73;;;-1.70;99.90;;;;;;5079214;28;20027;-50
2022/11/19 05:27:59;;;;;;;18.23;11.80;;;-1.70;99.90;;;;;;5092946;28;20413;-49
2022/11/19 05:30:45;;;;;;;15.77;11.20;;;-1.70;99.90;;;;;;5092731;28;20020;-49
2022/11/19 05:33:31;;;;;;;16.92;11.05;;;-1.70;99.90;;;;;;5092969;28;20024;-48
2022/11/19 05:36:17;;;;;;;15.32;10.80;;;-1.70;99.90;;;;;;5092742;28;20024;-49
2022/11/19 05:39:03;;;;;;;16.83;11.52;;;-1.60;99.90;;;;;;5092988;28;20032;-51
2022/11/19 05:41:49;;;;;;;15.93;10.80;;;-1.60;99.90;;;;;;5092473;28;20404;-49
2022/11/19 05:44:35;;;;;;;15.68;11.20;;;-1.60;99.90;;;;;;5093351;28;20032;-53
2022/11/19 05:47:21;;;;;;;16.70;11.68;;;-1.60;99.90;;;;;;5077575;28;20110;-51
2022/11/19 05:50:07;;;;;;;16.83;11.68;;;-1.60;99.90;;;;;;5092387;28;20032;-54
2022/11/19 05:52:53;;;;;;;16.45;10.70;;;-1.70;99.90;;;;;;5092335;28;20034;-56
2022/11/19 05:55:39;;;;;;;16.27;10.70;;;-1.80;99.90;;;;;;5091095;28;20024;-49
2022/11/19 05:58:25;;;;;;;15.82;11.70;;;-1.80;99.90;;;;;;5085895;28;20392;-50
2022/11/19 06:01:13;;;;;;;19.17;11.90;;;-1.80;99.90;;;;;;5092018;28;20401;-48
2022/11/19 06:03:59;;;;;;;17.52;12.27;;;-1.80;99.90;;;;;;5093008;28;20051;-48
2022/11/19 06:06:45;;;;;;;16.60;10.93;;;-1.70;99.90;;;;;;5077800;28;20110;-51
2022/11/19 06:09:31;;;;;;;17.88;11.95;;;-1.70;99.90;;;;;;5092259;28;20034;-52
2022/11/19 06:12:17;;;;;;;18.80;11.80;;;-1.70;99.90;;;;;;5091927;28;20024;-50
2022/11/19 06:15:05;;;;;;;18.50;12.40;;;-1.80;99.90;;;;;;5091953;28;20404;-50
2022/11/19 06:17:51;;;;;;;18.67;12.38;;;-1.70;99.90;;;;;;5090094;28;20039;-52
2022/11/19 06:20:37;;;;;;;19.52;11.75;;;-1.70;99.90;;;;;;5077709;28;20589;-49
2022/11/19 06:23:23;;;;;;;17.02;12.23;;;-1.70;99.90;;;;;;5076835;28;20484;-52
2022/11/19 06:26:09;;;;;;;22.08;12.07;;;-1.80;99.90;;;;;;5092595;28;20032;-48
2022/11/19 06:28:56;;;;;;;17.75;11.75;;;-1.80;99.90;;;;;;5091853;28;20614;-48
2022/11/19 06:31:42;;;;;;;23.45;13.15;;;-1.80;99.90;;;;;;5091601;28;20032;-52
2022/11/19 06:34:28;;;;;;;17.60;11.73;;;-1.80;99.90;;;;;;5099052;28;20027;-56
2022/11/19 06:37:13;;;;;;;18.40;12.20;;;-1.90;99.90;;;;;;5095588;28;20388;-54
2022/11/19 06:39:59;;;;;;;18.75;11.95;;;-1.90;99.90;;;;;;5103774;28;20642;-52
2022/11/19 06:42:45;;;;;;;18.10;12.75;;;-1.90;99.90;;;;;;5095373;28;20024;-48
2022/11/19 06:45:31;;;;;;;17.52;11.80;;;-1.90;99.90;;;;;;5111953;28;20115;-49
2022/11/19 06:48:17;;;;;;;14.90;10.90;;;-1.90;99.90;;;;;;5111991;28;20028;-50
2022/11/19 06:51:04;;;;;;;17.40;11.77;;;-1.80;99.90;;;;;;5111628;28;20043;-49
2022/11/19 06:53:50;;;;;;;17.88;12.70;;;-1.80;99.90;;;;;;5100090;28;20027;-48
2022/11/19 06:56:36;;;;;;;17.83;12.18;;;-1.80;99.90;;;;;;5094184;28;20032;-48
2022/11/19 06:59:22;;;;;;;17.42;11.07;;;-1.80;99.90;;;;;;5073785;28;20028;-48
2022/11/19 07:02:10;;;;;;;19.15;13.00;;;-1.80;99.90;;;;;;5094318;28;20024;-47
2022/11/19 07:04:56;;;;;;;18.45;12.02;;;-1.70;99.90;;;;;;5094024;28;20032;-49
2022/11/19 07:07:42;;;;;;;17.55;11.35;;;-1.70;99.90;;;;;;5081697;28;20028;-48
2022/11/19 07:10:28;;;;;;;17.98;11.90;;;-1.80;99.90;;;;;;5082560;28;20499;-48
2022/11/19 07:13:14;;;;;;;18.63;12.55;;;-1.90;99.90;;;;;;5097583;28;20035;-53
2022/11/19 07:16:02;;;;;;;18.30;12.25;;;-2.00;99.90;;;;;;5092526;28;20446;-49
2022/11/19 07:18:48;;;;;;;19.05;12.60;;;-2.00;99.90;;;;;;5096943;28;20099;-49
2022/11/19 07:21:35;;;;;;;26.38;15.85;;;-2.00;99.90;;;;;;5109747;28;20495;-55
2022/11/19 07:24:21;;;;;;;24.73;14.20;;;-2.00;99.90;;;;;;5093131;28;20024;-52
2022/11/19 07:27:07;;;;;;;20.02;12.00;;;-2.00;99.90;;;;;;5086471;28;20035;-51
2022/11/19 07:29:52;;;;;;;19.85;12.50;;;-1.90;99.90;;;;;;5090088;28;20020;-50
2022/11/19 07:32:39;;;;;;;27.40;14.63;;;-1.90;99.90;;;;;;5090661;28;20039;-51
2022/11/19 07:35:25;;;;;;;19.65;12.93;;;-1.90;99.90;;;;;;5093506;28;20106;-53
2022/11/19 07:38:11;;;;;;;18.13;12.02;;;-1.90;99.90;;;;;;5094890;28;20028;-50
2022/11/19 07:40:57;;;;;;;19.55;12.55;;;-1.80;99.90;;;;;;5101052;28;20037;-49
2022/11/19 07:43:43;;;;;;;21.17;13.40;;;-1.90;99.90;;;;;;5074874;28;20104;-50
2022/11/19 07:46:29;;;;;;;21.42;13.00;;;-1.80;99.90;;;;;;5074714;28;20558;-47
2022/11/19 07:49:15;;;;;;;21.92;13.82;;;-1.80;99.90;;;;;;5075312;28;20040;-49
2022/11/19 07:52:01;;;;;;;18.63;12.88;;;-1.80;99.90;;;;;;5074948;28;20086;-51
2022/11/19 07:54:47;;;;;;;21.60;14.30;;;-1.70;99.90;;;;;;5083320;28;20519;-49
2022/11/19 07:57:33;;;;;;;22.02;13.43;;;-1.80;99.90;;;;;;5079069;28;20063;-49
2022/11/19 08:00:19;;;;;;;22.25;13.02;;;-1.80;99.90;;;;;;5076781;28;20050;-50
2022/11/19 08:03:06;;;;;;;20.35;13.40;;;-2.00;99.90;;;;;;5077932;28;20115;-52
2022/11/19 08:05:52;;;;;;;18.88;12.52;;;-2.00;99.90;;;;;;5097658;28;20027;-48
2022/11/19 08:08:38;;;;;;;21.92;13.65;;;-1.90;99.90;;;;;;5098894;28;20110;-49
2022/11/19 08:11:24;;;;;;;19.45;13.60;;;-2.00;99.90;;;;;;5102347;28;20565;-50
2022/11/19 08:14:13;;;;;;;18.83;12.88;;;-1.90;99.90;;;;;;5080281;28;20032;-55
2022/11/19 08:20:04;;;;;;;21.60;13.45;;;-1.60;99.90;;;;;;5101698;28;20377;-49
2022/11/19 08:22:50;;;;;;;19.17;12.85;;;-1.40;99.90;;;;;;5081123;28;20036;-49
2022/11/19 08:25:37;;;;;;;20.48;12.63;;;-1.20;99.90;;;;;;5093739;28;20016;-47
2022/11/19 08:28:23;;;;;;;23.33;15.25;;;-1.30;99.90;;;;;;5094671;28;20024;-51
2022/11/19 08:31:09;;;;;;;28.48;14.63;;;-1.30;99.90;;;;;;5093403;28;20194;-57
2022/11/19 08:33:55;;;;;;;20.42;13.68;;;-1.20;99.90;;;;;;5093713;28;20036;-54
2022/11/19 08:36:42;;;;;;;22.27;13.43;;;-1.20;99.90;;;;;;5099050;28;20028;-54
2022/11/19 08:39:28;;;;;;;21.52;13.00;;;-1.10;99.90;;;;;;5090369;28;20461;-52
2022/11/19 08:45:18;;;;;;;19.42;13.02;;;-0.80;99.90;;;;;;5092763;28;20043;-48
2022/11/19 08:48:06;;;;;;;21.48;14.07;;;-0.80;99.90;;;;;;5095618;28;20097;-52
2022/11/19 08:50:52;;;;;;;17.52;12.75;;;-0.60;99.90;;;;;;5081479;28;20442;-57
2022/11/19 08:53:38;;;;;;;18.73;12.60;;;-0.50;99.90;;;;;;5087905;28;20067;-55
2022/11/19 08:56:24;;;;;;;17.85;12.52;;;-0.50;99.90;;;;;;5085874;28;20522;-58
2022/11/19 08:59:10;;;;;;;21.85;13.80;;;-0.40;99.90;;;;;;5092745;28;20039;-67
2022/11/19 09:01:56;;;;;;;18.92;13.02;;;-0.40;99.90;;;;;;5092998;28;20024;-57
2022/11/19 09:04:42;;;;;;;19.95;13.70;;;-0.40;99.90;;;;;;5079103;28;20032;-57
2022/11/19 09:07:28;;;;;;;29.42;17.08;;;-0.50;99.90;;;;;;5090821;28;20055;-58
2022/11/19 09:10:15;;;;;;;19.65;13.18;;;-0.50;99.90;;;;;;5092233;28;20028;-56
2022/11/19 09:13:01;;;;;;;21.13;14.43;;;-0.40;99.90;;;;;;5092500;28;20111;-53
2022/11/19 09:15:48;;;;;;;19.35;14.05;;;-0.50;99.90;;;;;;5093260;28;20028;-53
2022/11/19 09:18:37;;;;;;;18.88;12.82;;;-0.50;99.90;;;;;;5094002;28;20115;-52
2022/11/19 09:21:23;;;;;;;22.90;14.48;;;-0.50;99.90;;;;;;5093691;28;20028;-53
2022/11/19 09:24:17;;;;;;;20.67;13.20;;;-0.70;99.90;;;;;;5094150;28;20046;-55
2022/11/19 09:27:03;;;;;;;22.13;14.40;;;-0.60;99.90;;;;;;5092136;28;20038;-54
2022/11/19 09:29:49;;;;;;;19.35;13.80;;;-0.50;99.90;;;;;;5093264;28;20415;-54
2022/11/19 09:32:35;;;;;;;18.88;13.10;;;-0.60;99.90;;;;;;5093289;28;20028;-54
2022/11/19 09:35:20;;;;;;;18.35;13.00;;;-0.50;99.90;;;;;;5093128;28;20033;-59
2022/11/19 09:38:06;;;;;;;24.25;14.38;;;-0.30;99.90;;;;;;5093118;28;20028;-50
2022/11/19 09:40:54;;;;;;;16.92;12.80;;;-0.30;99.90;;;;;;5093076;28;20042;-50
2022/11/19 09:44:11;;;;;;;22.27;13.32;;;-0.20;99.90;;;;;;5078802;28;20050;-53
2022/11/19 09:47:04;;;;;;;;;;;-0.10;99.90;;;;;;5092954;28;20123;-53
2022/11/19 09:50:00;;;;;;;16.67;11.07;;;-0.10;99.90;;;;;;5076518;28;19904;-52
2022/11/19 09:53:11;;;;;;;16.95;11.75;;;0.20;99.90;;;;;;5093419;28;20440;-49
2022/11/19 09:55:59;;;;;;;18.40;12.20;;;0.30;99.90;;;;;;5093480;28;20162;-51
2022/11/19 09:58:45;;;;;;;17.02;12.63;;;0.40;99.90;;;;;;5064130;28;20404;-55
2022/11/19 10:01:32;;;;;;;15.70;11.75;;;0.50;99.90;;;;;;5092512;28;20030;-57
2022/11/19 10:04:23;;;;;;;19.13;12.80;;;0.60;99.90;;;;;;5076031;28;20017;-54
2022/11/19 10:07:36;;;;;;;18.25;12.02;;;0.50;99.90;;;;;;5092884;28;20115;-49
2022/11/19 10:10:41;;;;;;;16.30;11.88;;;0.60;99.90;;;;;;5075560;28;20036;-53
2022/11/19 10:13:44;;;;;;;20.90;12.35;;;0.80;99.90;;;;;;5091063;28;20032;-51
2022/11/19 10:17:00;;;;;;;19.08;13.43;;;0.80;99.90;;;;;;5092500;28;20028;-55
2022/11/19 10:19:56;;;;;;;16.10;12.40;;;0.70;99.90;;;;;;5092211;28;20020;-52
2022/11/19 10:23:03;;;;;;;19.35;12.75;;;0.70;99.90;;;;;;5092161;28;20388;-55
2022/11/19 10:25:58;;;;;;;35.22;20.85;;;0.70;99.90;;;;;;5075281;28;20023;-57
2022/11/19 10:28:56;;;;;;;23.83;15.80;;;0.70;99.90;;;;;;5075213;28;20024;-54
2022/11/19 10:31:47;;;;;;;17.60;12.98;;;0.70;99.90;;;;;;5090313;28;20032;-56
2022/11/19 10:34:36;;;;;;;36.78;21.17;;;0.80;99.90;;;;;;5077979;28;20035;-51
2022/11/19 10:37:25;;;;;;;21.23;14.50;;;0.90;99.90;;;;;;5076229;28;20476;-55
2022/11/19 10:40:18;;;;;;;18.08;12.68;;;0.80;99.90;;;;;;5089904;28;20054;-56
2022/11/19 10:43:23;;;;;;;19.85;12.90;;;0.80;99.90;;;;;;5090366;28;20016;-56
2022/11/19 10:46:13;;;;;;;18.48;12.77;;;0.90;99.90;;;;;;5090127;28;20074;-57
2022/11/19 10:49:01;;;;;;;17.13;13.10;;;0.80;99.90;;;;;;5092252;28;20101;-56
2022/11/19 10:51:46;;;;;;;18.60;11.90;;;1.00;99.90;;;;;;5091796;28;20036;-55
2022/11/19 10:54:33;;;;;;;20.98;13.98;;;1.00;99.90;;;;;;5091453;28;20028;-57
2022/11/19 10:57:20;;;;;;;18.30;13.48;;;0.90;99.90;;;;;;5091470;28;20016;-54
2022/11/19 11:00:07;;;;;;;16.48;12.57;;;1.00;99.90;;;;;;5089599;28;20020;-59
2022/11/19 11:03:01;;;;;;;20.95;13.10;;;0.90;99.90;;;;;;5091661;28;20059;-55
2022/11/19 11:06:05;;;;;;;19.60;13.73;;;0.80;99.90;;;;;;5077604;28;20024;-55
2022/11/19 11:08:55;;;;;;;20.90;14.43;;;0.90;99.90;;;;;;5089261;28;20085;-54
2022/11/19 11:14:52;;;;;;;19.83;14.30;;;1.20;99.90;;;;;;5090209;28;20028;-57
2022/11/19 11:17:38;;;;;;;18.20;13.73;;;1.20;99.90;;;;;;5092015;28;20030;-58
2022/11/19 11:20:27;;;;;;;21.95;13.13;;;1.20;99.90;;;;;;5077556;28;20036;-56
2022/11/19 11:23:17;;;;;;;18.92;12.80;;;1.20;99.90;;;;;;5091884;28;20036;-57
2022/11/19 11:26:06;;;;;;;17.75;13.18;;;1.30;99.90;;;;;;5090125;28;20055;-55
2022/11/19 11:28:56;;;;;;;23.35;14.63;;;1.40;99.90;;;;;;5077746;28;20025;-56
2022/11/19 11:31:44;;;;;;;18.58;14.70;;;1.00;99.90;;;;;;5090390;28;20077;-57
2022/11/19 11:34:41;;;;;;;17.48;12.73;;;1.00;99.90;;;;;;5090768;28;20384;-55
2022/11/19 11:37:27;;;;;;;19.75;13.50;;;1.20;99.90;;;;;;5090499;28;20036;-55
2022/11/19 11:40:22;;;;;;;20.88;13.93;;;1.30;99.90;;;;;;5090388;28;20036;-55
2022/11/19 11:43:16;;;;;;;21.40;12.70;;;1.30;99.90;;;;;;5090976;28;20046;-56
2022/11/19 11:46:05;;;;;;;19.38;12.60;;;1.50;99.90;;;;;;5090877;28;20307;-54
2022/11/19 11:48:52;;;;;;;16.52;12.25;;;1.60;99.90;;;;;;5091013;28;20112;-56
2022/11/19 11:51:38;;;;;;;17.88;13.13;;;1.60;99.90;;;;;;5090328;28;20028;-60
2022/11/19 11:54:24;;;;;;;16.63;12.52;;;1.60;99.90;;;;;;5075671;28;20051;-57
2022/11/19 11:57:18;;;;;;;17.15;12.93;;;1.60;99.90;;;;;;5090801;28;20435;-54
2022/11/19 12:00:33;;;;;;;16.85;12.48;;;1.40;99.90;;;;;;5090922;28;20039;-55
2022/11/19 12:03:19;;;;;;;16.50;11.95;;;1.50;99.90;;;;;;5090069;28;20098;-56
2022/11/19 12:06:14;;;;;;;19.08;12.90;;;1.70;99.90;;;;;;5090262;28;20031;-57
2022/11/19 12:09:15;;;;;;;15.30;11.95;;;1.50;99.90;;;;;;5089809;28;20028;-57
2022/11/19 12:12:15;;;;;;;17.83;13.30;;;1.50;99.90;;;;;;5090466;28;20028;-57
2022/11/19 12:15:24;;;;;;;17.55;13.15;;;1.40;99.90;;;;;;5090627;28;20524;-55
2022/11/19 12:18:26;;;;;;;18.00;13.15;;;1.50;99.90;;;;;;5090704;28;20031;-55
2022/11/19 12:21:42;;;;;;;18.30;12.15;;;1.60;99.90;;;;;;5091640;28;20438;-57
2022/11/19 12:24:28;;;;;;;18.83;12.85;;;1.80;99.90;;;;;;5094526;28;20099;-60
2022/11/19 12:27:40;;;;;;;18.08;12.88;;;1.60;99.90;;;;;;5093754;28;20025;-54
2022/11/19 12:30:37;;;;;;;17.85;12.65;;;1.80;99.90;;;;;;5093542;28;20024;-52
2022/11/19 12:34:00;;;;;;;17.80;12.65;;;1.60;99.90;;;;;;5093422;28;20027;-57
2022/11/19 12:37:07;;;;;;;17.25;12.60;;;1.80;99.90;;;;;;5078554;28;20028;-55
2022/11/19 12:39:58;;;;;;;19.02;12.15;;;2.00;99.90;;;;;;5057701;28;20111;-55
2022/11/19 12:43:02;;;;;;;17.13;12.15;;;2.20;99.90;;;;;;5079783;28;20024;-56
2022/11/19 12:46:17;;;;;;;15.70;11.93;;;2.40;99.70;;;;;;5093405;28;20117;-57
2022/11/19 12:49:29;;;;;;;14.35;10.50;;;2.60;98.40;;;;;;5079664;28;20411;-57
2022/11/19 12:52:54;;;;;;;12.35;10.05;;;2.30;97.50;;;;;;5093427;28;20028;-56
2022/11/19 12:56:07;;;;;;;13.50;10.45;;;2.50;97.10;;;;;;5093805;28;20028;-57
2022/11/19 12:59:12;;;;;;;13.50;10.35;;;2.70;96.80;;;;;;5094383;28;20097;-56
2022/11/19 13:02:00;;;;;;;14.32;10.13;;;2.60;95.90;;;;;;5093012;28;20020;-54
2022/11/19 13:05:08;;;;;;;13.68;8.82;;;2.70;95.40;;;;;;5064846;28;20031;-55
2022/11/19 13:08:01;;;;;;;11.20;8.90;;;2.70;94.90;;;;;;5092989;28;20027;-53
2022/11/19 13:11:03;;;;;;;14.93;11.32;;;3.00;94.30;;;;;;5093053;28;20024;-56
2022/11/19 13:13:59;;;;;;;14.18;10.57;;;3.10;95.50;;;;;;5093372;28;20564;-55
2022/11/19 13:16:46;;;;;;;14.10;11.07;;;3.10;96.40;;;;;;5091942;28;20154;-54
2022/11/19 13:19:37;;;;;;;16.02;11.25;;;3.00;96.20;;;;;;5077953;28;20500;-55
2022/11/19 13:22:28;;;;;;;14.95;10.45;;;2.80;96.90;;;;;;5092039;28;20043;-56
2022/11/19 13:25:25;;;;;;;13.80;10.30;;;2.90;96.40;;;;;;5091954;28;20036;-56
2022/11/19 13:28:27;;;;;;;11.98;9.85;;;3.20;95.40;;;;;;5093336;28;20065;-58
2022/11/19 13:31:28;;;;;;;13.02;9.93;;;3.10;96.00;;;;;;5092385;28;20028;-58
2022/11/19 13:34:49;;;;;;;12.48;9.32;;;3.10;95.30;;;;;;5093052;28;20016;-55
2022/11/19 13:37:47;;;;;;;12.90;9.32;;;3.30;95.60;;;;;;5092753;28;20074;-55
2022/11/19 13:40:54;;;;;;;10.93;8.30;;;3.70;94.70;;;;;;5092774;28;20020;-58
2022/11/19 13:46:56;;;;;;;12.70;10.18;;;4.20;93.10;;;;;;5092193;28;20031;-55
2022/11/19 13:49:47;;;;;;;10.60;8.43;;;4.60;92.30;;;;;;5077458;28;20032;-57
2022/11/19 13:52:43;;;;;;;12.68;8.30;;;5.30;90.70;;;;;;5092579;28;20040;-57
2022/11/19 13:55:39;;;;;;;11.00;9.02;;;5.70;90.10;;;;;;5092465;28;20028;-58
2022/11/19 13:58:37;;;;;;;9.82;7.53;;;6.80;87.40;;;;;;5092379;28;20016;-56
2022/11/19 14:01:53;;;;;;;8.80;6.28;;;7.60;84.20;;;;;;5092220;28;20490;-56
2022/11/19 14:05:16;;;;;;;10.05;6.97;;;8.30;78.80;;;;;;5091728;28;20117;-59
2022/11/19 14:08:26;;;;;;;7.97;6.78;;;9.10;76.00;;;;;;5091591;28;20028;-57
2022/11/19 14:11:46;;;;;;;7.70;6.68;;;8.90;72.40;;;;;;5076367;28;20032;-56
2022/11/19 14:27:53;;;;;;;7.65;6.00;;;9.10;68.30;;;;;;5091199;28;20024;-56
2022/11/19 14:30:58;;;;;;;7.40;6.40;;;7.30;71.20;;;;;;5091167;28;20032;-57
2022/11/19 14:33:47;;;;;;;9.00;6.85;;;5.70;74.60;;;;;;5076198;28;20099;-55
2022/11/19 14:36:53;;;;;;;9.55;7.63;;;4.70;77.90;;;;;;5091780;28;20029;-57
2022/11/19 14:39:46;;;;;;;9.35;7.38;;;3.80;80.80;;;;;;5091584;28;20518;-51
2022/11/19 14:42:32;;;;;;;12.25;7.65;;;3.50;82.70;;;;;;5062929;28;20035;-60
2022/11/19 14:45:19;;;;;;;9.18;7.75;;;3.00;85.50;;;;;;5091754;28;20484;-57
2022/11/19 14:48:06;;;;;;;10.43;7.85;;;2.80;87.30;;;;;;5091613;28;20468;-53
2022/11/19 14:51:25;;;;;;;12.00;8.63;;;2.40;89.70;;;;;;5091237;28;20051;-58
2022/11/19 14:54:14;;;;;;;14.25;9.80;;;2.40;90.90;;;;;;5091589;28;20085;-56
2022/11/19 14:57:07;;;;;;;15.48;10.30;;;2.20;92.50;;;;;;5091315;28;20402;-56
2022/11/19 15:00:05;;;;;;;12.90;10.02;;;2.00;93.30;;;;;;5089967;28;20059;-53
2022/11/19 15:02:53;;;;;;;12.50;9.20;;;2.00;93.70;;;;;;5091052;28;20020;-56
2022/11/19 15:05:41;;;;;;;13.20;10.40;;;2.10;94.10;;;;;;5091310;28;20032;-53
2022/11/19 15:08:40;;;;;;;15.55;10.95;;;2.10;94.40;;;;;;5090211;28;20028;-55
2022/11/19 15:11:54;;;;;;;15.75;10.63;;;2.10;94.70;;;;;;5090778;28;20044;-58
2022/11/19 15:15:03;;;;;;;16.00;11.27;;;1.90;95.50;;;;;;5090654;28;20100;-55